sensor_id;sensor_type;location;lat;lon;timestamp;P1;durP1;ratioP1;P2;durP2;ratioP2
67195;SDS011;54122;53.538;49.366;2023-07-28T00:01:28;13.98;;;5.05;;
67195;SDS011;54122;53.538;49.366;2023-07-28T00:03:55;10.90;;;5.07;;
67195;SDS011;54122;53.538;49.366;2023-07-28T00:06:21;9.77;;;5.38;;
67195;SDS011;54122;53.538;49.366;2023-07-28T00:08:47;15.23;;;6.00;;
67195;SDS011;54122;53.538;49.366;2023-07-28T00:11:14;15.13;;;5.45;;
67195;SDS011;54122;53.538;49.366;2023-07-28T00:13:41;9.50;;;4.80;;
67195;SDS011;54122;53.538;49.366;2023-07-28T00:16:08;11.90;;;5.78;;
67195;SDS011;54122;53.538;49.366;2023-07-28T00:18:35;10.45;;;4.78;;
67195;SDS011;54122;53.538;49.366;2023-07-28T00:21:01;8.63;;;5.15;;
67195;SDS011;54122;53.538;49.366;2023-07-28T00:23:30;9.20;;;4.72;;
67195;SDS011;54122;53.538;49.366;2023-07-28T00:25:56;16.35;;;5.13;;
67195;SDS011;54122;53.538;49.366;2023-07-28T00:28:22;15.35;;;5.30;;
67195;SDS011;54122;53.538;49.366;2023-07-28T00:30:49;16.02;;;5.43;;
67195;SDS011;54122;53.538;49.366;2023-07-28T00:33:15;16.70;;;5.45;;
67195;SDS011;54122;53.538;49.366;2023-07-28T00:35:42;9.95;;;5.07;;
67195;SDS011;54122;53.538;49.366;2023-07-28T00:38:08;23.17;;;5.38;;
67195;SDS011;54122;53.538;49.366;2023-07-28T00:40:35;9.45;;;5.32;;
67195;SDS011;54122;53.538;49.366;2023-07-28T00:43:01;24.13;;;4.68;;
67195;SDS011;54122;53.538;49.366;2023-07-28T00:45:28;10.57;;;4.95;;
67195;SDS011;54122;53.538;49.366;2023-07-28T00:47:56;10.73;;;5.30;;
67195;SDS011;54122;53.538;49.366;2023-07-28T00:50:23;10.05;;;4.75;;
67195;SDS011;54122;53.538;49.366;2023-07-28T00:52:50;7.15;;;4.97;;
67195;SDS011;54122;53.538;49.366;2023-07-28T00:55:22;7.60;;;4.93;;
67195;SDS011;54122;53.538;49.366;2023-07-28T00:57:48;14.80;;;4.82;;
67195;SDS011;54122;53.538;49.366;2023-07-28T01:00:15;9.13;;;4.70;;
67195;SDS011;54122;53.538;49.366;2023-07-28T01:02:42;25.73;;;5.45;;
67195;SDS011;54122;53.538;49.366;2023-07-28T01:05:09;9.80;;;4.93;;
67195;SDS011;54122;53.538;49.366;2023-07-28T01:07:42;10.18;;;4.18;;
67195;SDS011;54122;53.538;49.366;2023-07-28T01:10:22;12.63;;;5.30;;
67195;SDS011;54122;53.538;49.366;2023-07-28T01:12:53;11.82;;;4.78;;
67195;SDS011;54122;53.538;49.366;2023-07-28T01:15:19;15.60;;;5.30;;
67195;SDS011;54122;53.538;49.366;2023-07-28T01:17:45;17.17;;;5.68;;
67195;SDS011;54122;53.538;49.366;2023-07-28T01:20:11;15.35;;;5.13;;
67195;SDS011;54122;53.538;49.366;2023-07-28T01:28:03;13.73;;;4.32;;
67195;SDS011;54122;53.538;49.366;2023-07-28T01:30:31;14.52;;;5.20;;
67195;SDS011;54122;53.538;49.366;2023-07-28T01:32:57;12.00;;;4.45;;
67195;SDS011;54122;53.538;49.366;2023-07-28T01:35:24;13.73;;;5.53;;
67195;SDS011;54122;53.538;49.366;2023-07-28T01:37:51;10.02;;;5.20;;
67195;SDS011;54122;53.538;49.366;2023-07-28T01:40:18;17.17;;;4.82;;
67195;SDS011;54122;53.538;49.366;2023-07-28T01:42:44;9.95;;;5.10;;
67195;SDS011;54122;53.538;49.366;2023-07-28T01:45:11;7.03;;;4.93;;
67195;SDS011;54122;53.538;49.366;2023-07-28T01:47:37;13.00;;;5.10;;
67195;SDS011;54122;53.538;49.366;2023-07-28T01:50:03;10.63;;;5.45;;
67195;SDS011;54122;53.538;49.366;2023-07-28T01:52:30;9.25;;;4.97;;
67195;SDS011;54122;53.538;49.366;2023-07-28T01:54:56;8.63;;;4.65;;
67195;SDS011;54122;53.538;49.366;2023-07-28T01:57:22;9.30;;;5.05;;
67195;SDS011;54122;53.538;49.366;2023-07-28T01:59:52;17.55;;;5.38;;
67195;SDS011;54122;53.538;49.366;2023-07-28T02:02:19;7.35;;;4.90;;
67195;SDS011;54122;53.538;49.366;2023-07-28T02:04:45;10.80;;;4.90;;
67195;SDS011;54122;53.538;49.366;2023-07-28T02:07:11;23.23;;;5.53;;
67195;SDS011;54122;53.538;49.366;2023-07-28T02:09:38;13.48;;;5.43;;
67195;SDS011;54122;53.538;49.366;2023-07-28T02:12:04;13.18;;;5.03;;
67195;SDS011;54122;53.538;49.366;2023-07-28T02:14:30;7.70;;;5.05;;
67195;SDS011;54122;53.538;49.366;2023-07-28T02:16:56;11.23;;;5.22;;
67195;SDS011;54122;53.538;49.366;2023-07-28T02:19:23;17.00;;;5.18;;
67195;SDS011;54122;53.538;49.366;2023-07-28T02:21:50;9.15;;;4.70;;
67195;SDS011;54122;53.538;49.366;2023-07-28T02:24:16;10.27;;;5.05;;
67195;SDS011;54122;53.538;49.366;2023-07-28T02:26:42;8.68;;;4.70;;
67195;SDS011;54122;53.538;49.366;2023-07-28T02:29:08;8.75;;;4.97;;
67195;SDS011;54122;53.538;49.366;2023-07-28T02:31:34;12.55;;;5.20;;
67195;SDS011;54122;53.538;49.366;2023-07-28T02:34:00;9.95;;;5.35;;
67195;SDS011;54122;53.538;49.366;2023-07-28T02:36:27;7.88;;;4.38;;
67195;SDS011;54122;53.538;49.366;2023-07-28T02:38:53;10.55;;;4.88;;
67195;SDS011;54122;53.538;49.366;2023-07-28T02:41:19;9.02;;;4.90;;
67195;SDS011;54122;53.538;49.366;2023-07-28T02:43:45;17.25;;;5.25;;
67195;SDS011;54122;53.538;49.366;2023-07-28T02:46:12;10.18;;;5.13;;
67195;SDS011;54122;53.538;49.366;2023-07-28T02:48:38;13.65;;;5.78;;
67195;SDS011;54122;53.538;49.366;2023-07-28T02:51:04;11.13;;;4.78;;
67195;SDS011;54122;53.538;49.366;2023-07-28T02:53:30;14.38;;;5.20;;
67195;SDS011;54122;53.538;49.366;2023-07-28T02:55:56;11.18;;;5.22;;
67195;SDS011;54122;53.538;49.366;2023-07-28T02:58:23;8.90;;;4.97;;
67195;SDS011;54122;53.538;49.366;2023-07-28T03:00:51;8.63;;;4.90;;
67195;SDS011;54122;53.538;49.366;2023-07-28T03:03:17;8.43;;;4.95;;
67195;SDS011;54122;53.538;49.366;2023-07-28T03:05:43;12.23;;;5.35;;
67195;SDS011;54122;53.538;49.366;2023-07-28T03:08:09;7.50;;;4.70;;
67195;SDS011;54122;53.538;49.366;2023-07-28T03:10:35;8.98;;;4.85;;
67195;SDS011;54122;53.538;49.366;2023-07-28T03:13:01;10.45;;;4.90;;
67195;SDS011;54122;53.538;49.366;2023-07-28T03:15:28;8.73;;;5.03;;
67195;SDS011;54122;53.538;49.366;2023-07-28T03:17:54;8.25;;;5.50;;
67195;SDS011;54122;53.538;49.366;2023-07-28T03:20:20;13.70;;;5.95;;
67195;SDS011;54122;53.538;49.366;2023-07-28T03:22:46;15.20;;;6.03;;
67195;SDS011;54122;53.538;49.366;2023-07-28T03:25:13;10.60;;;5.13;;
67195;SDS011;54122;53.538;49.366;2023-07-28T03:27:39;10.82;;;5.75;;
67195;SDS011;54122;53.538;49.366;2023-07-28T03:30:05;9.30;;;5.47;;
67195;SDS011;54122;53.538;49.366;2023-07-28T03:32:34;13.65;;;5.07;;
67195;SDS011;54122;53.538;49.366;2023-07-28T03:35:00;13.40;;;5.53;;
67195;SDS011;54122;53.538;49.366;2023-07-28T03:37:27;8.13;;;5.07;;
67195;SDS011;54122;53.538;49.366;2023-07-28T03:39:53;9.82;;;5.45;;
67195;SDS011;54122;53.538;49.366;2023-07-28T03:42:19;9.38;;;5.32;;
67195;SDS011;54122;53.538;49.366;2023-07-28T03:44:45;13.73;;;5.53;;
67195;SDS011;54122;53.538;49.366;2023-07-28T03:47:11;10.18;;;4.75;;
67195;SDS011;54122;53.538;49.366;2023-07-28T03:49:37;6.78;;;4.47;;
67195;SDS011;54122;53.538;49.366;2023-07-28T03:52:04;10.93;;;5.15;;
67195;SDS011;54122;53.538;49.366;2023-07-28T03:54:30;14.70;;;5.28;;
67195;SDS011;54122;53.538;49.366;2023-07-28T03:56:56;9.50;;;5.28;;
67195;SDS011;54122;53.538;49.366;2023-07-28T03:59:22;11.18;;;4.85;;
67195;SDS011;54122;53.538;49.366;2023-07-28T04:01:49;13.77;;;4.75;;
67195;SDS011;54122;53.538;49.366;2023-07-28T04:04:15;17.23;;;5.40;;
67195;SDS011;54122;53.538;49.366;2023-07-28T04:09:08;9.32;;;4.90;;
67195;SDS011;54122;53.538;49.366;2023-07-28T04:11:35;16.60;;;4.90;;
67195;SDS011;54122;53.538;49.366;2023-07-28T04:14:01;12.30;;;4.47;;
67195;SDS011;54122;53.538;49.366;2023-07-28T04:16:28;6.60;;;4.28;;
67195;SDS011;54122;53.538;49.366;2023-07-28T04:18:54;9.75;;;4.55;;
67195;SDS011;54122;53.538;49.366;2023-07-28T04:21:20;8.63;;;4.20;;
67195;SDS011;54122;53.538;49.366;2023-07-28T04:23:46;11.45;;;4.68;;
67195;SDS011;54122;53.538;49.366;2023-07-28T04:26:12;17.27;;;4.60;;
67195;SDS011;54122;53.538;49.366;2023-07-28T04:28:38;9.50;;;4.40;;
67195;SDS011;54122;53.538;49.366;2023-07-28T04:31:05;13.48;;;4.28;;
67195;SDS011;54122;53.538;49.366;2023-07-28T04:33:31;14.13;;;4.78;;
67195;SDS011;54122;53.538;49.366;2023-07-28T04:35:57;12.15;;;4.80;;
67195;SDS011;54122;53.538;49.366;2023-07-28T04:38:23;10.00;;;4.30;;
67195;SDS011;54122;53.538;49.366;2023-07-28T04:40:49;17.48;;;4.45;;
67195;SDS011;54122;53.538;49.366;2023-07-28T04:43:16;19.60;;;4.50;;
67195;SDS011;54122;53.538;49.366;2023-07-28T04:45:42;9.00;;;4.05;;
67195;SDS011;54122;53.538;49.366;2023-07-28T04:48:10;9.38;;;4.03;;
67195;SDS011;54122;53.538;49.366;2023-07-28T04:50:36;6.57;;;3.85;;
67195;SDS011;54122;53.538;49.366;2023-07-28T04:53:03;7.88;;;3.63;;
67195;SDS011;54122;53.538;49.366;2023-07-28T04:55:29;6.88;;;3.80;;
67195;SDS011;54122;53.538;49.366;2023-07-28T04:57:56;5.80;;;3.63;;
67195;SDS011;54122;53.538;49.366;2023-07-28T05:00:22;8.20;;;3.88;;
67195;SDS011;54122;53.538;49.366;2023-07-28T05:02:49;12.98;;;5.43;;
67195;SDS011;54122;53.538;49.366;2023-07-28T05:05:15;11.40;;;3.75;;
67195;SDS011;54122;53.538;49.366;2023-07-28T05:07:41;8.93;;;3.67;;
67195;SDS011;54122;53.538;49.366;2023-07-28T05:10:07;7.65;;;4.10;;
67195;SDS011;54122;53.538;49.366;2023-07-28T05:12:34;6.43;;;3.58;;
67195;SDS011;54122;53.538;49.366;2023-07-28T05:15:04;8.80;;;3.75;;
67195;SDS011;54122;53.538;49.366;2023-07-28T05:17:31;9.95;;;4.00;;
67195;SDS011;54122;53.538;49.366;2023-07-28T05:19:57;8.48;;;4.22;;
67195;SDS011;54122;53.538;49.366;2023-07-28T05:22:23;10.63;;;3.63;;
67195;SDS011;54122;53.538;49.366;2023-07-28T05:24:49;9.40;;;3.88;;
67195;SDS011;54122;53.538;49.366;2023-07-28T05:27:16;11.63;;;3.75;;
67195;SDS011;54122;53.538;49.366;2023-07-28T05:29:42;6.30;;;3.85;;
67195;SDS011;54122;53.538;49.366;2023-07-28T05:32:08;5.45;;;3.63;;
67195;SDS011;54122;53.538;49.366;2023-07-28T05:34:34;20.40;;;4.28;;
67195;SDS011;54122;53.538;49.366;2023-07-28T05:37:00;6.55;;;4.10;;
67195;SDS011;54122;53.538;49.366;2023-07-28T05:39:27;8.80;;;4.10;;
67195;SDS011;54122;53.538;49.366;2023-07-28T05:41:53;7.93;;;3.63;;
67195;SDS011;54122;53.538;49.366;2023-07-28T05:44:19;11.43;;;4.28;;
67195;SDS011;54122;53.538;49.366;2023-07-28T05:46:45;9.65;;;4.60;;
67195;SDS011;54122;53.538;49.366;2023-07-28T05:49:13;7.72;;;3.92;;
67195;SDS011;54122;53.538;49.366;2023-07-28T05:51:40;8.02;;;4.57;;
67195;SDS011;54122;53.538;49.366;2023-07-28T05:54:06;6.95;;;4.35;;
67195;SDS011;54122;53.538;49.366;2023-07-28T05:56:32;8.68;;;4.13;;
67195;SDS011;54122;53.538;49.366;2023-07-28T05:58:58;9.23;;;4.20;;
67195;SDS011;54122;53.538;49.366;2023-07-28T06:01:24;6.55;;;4.28;;
67195;SDS011;54122;53.538;49.366;2023-07-28T06:03:52;7.13;;;4.38;;
67195;SDS011;54122;53.538;49.366;2023-07-28T06:06:27;14.07;;;4.28;;
67195;SDS011;54122;53.538;49.366;2023-07-28T06:08:53;7.97;;;4.05;;
67195;SDS011;54122;53.538;49.366;2023-07-28T06:11:20;10.88;;;4.30;;
67195;SDS011;54122;53.538;49.366;2023-07-28T06:13:47;7.90;;;4.15;;
67195;SDS011;54122;53.538;49.366;2023-07-28T06:16:14;10.05;;;3.83;;
67195;SDS011;54122;53.538;49.366;2023-07-28T06:18:40;9.55;;;4.53;;
67195;SDS011;54122;53.538;49.366;2023-07-28T06:21:07;7.78;;;4.00;;
67195;SDS011;54122;53.538;49.366;2023-07-28T06:23:33;5.75;;;3.85;;
67195;SDS011;54122;53.538;49.366;2023-07-28T06:26:00;7.10;;;4.07;;
67195;SDS011;54122;53.538;49.366;2023-07-28T06:28:26;7.97;;;4.30;;
67195;SDS011;54122;53.538;49.366;2023-07-28T06:30:53;11.18;;;4.45;;
67195;SDS011;54122;53.538;49.366;2023-07-28T06:33:20;10.15;;;4.40;;
67195;SDS011;54122;53.538;49.366;2023-07-28T06:35:47;10.82;;;4.20;;
67195;SDS011;54122;53.538;49.366;2023-07-28T06:38:13;10.38;;;4.88;;
67195;SDS011;54122;53.538;49.366;2023-07-28T06:40:39;12.10;;;4.20;;
67195;SDS011;54122;53.538;49.366;2023-07-28T06:43:05;7.05;;;4.38;;
67195;SDS011;54122;53.538;49.366;2023-07-28T06:45:32;18.08;;;4.68;;
67195;SDS011;54122;53.538;49.366;2023-07-28T06:47:59;17.08;;;5.05;;
67195;SDS011;54122;53.538;49.366;2023-07-28T06:50:25;7.75;;;4.00;;
67195;SDS011;54122;53.538;49.366;2023-07-28T06:52:51;10.48;;;4.18;;
67195;SDS011;54122;53.538;49.366;2023-07-28T06:55:19;10.38;;;4.03;;
67195;SDS011;54122;53.538;49.366;2023-07-28T06:57:47;5.57;;;3.55;;
67195;SDS011;54122;53.538;49.366;2023-07-28T07:00:15;8.57;;;4.28;;
67195;SDS011;54122;53.538;49.366;2023-07-28T07:02:41;12.80;;;4.93;;
67195;SDS011;54122;53.538;49.366;2023-07-28T07:05:07;11.23;;;4.63;;
67195;SDS011;54122;53.538;49.366;2023-07-28T07:07:34;7.45;;;4.35;;
67195;SDS011;54122;53.538;49.366;2023-07-28T07:10:00;8.07;;;4.50;;
67195;SDS011;54122;53.538;49.366;2023-07-28T07:12:29;9.40;;;4.40;;
67195;SDS011;54122;53.538;49.366;2023-07-28T07:15:00;5.57;;;4.15;;
67195;SDS011;54122;53.538;49.366;2023-07-28T07:17:27;10.70;;;4.60;;
67195;SDS011;54122;53.538;49.366;2023-07-28T07:19:53;9.45;;;4.38;;
67195;SDS011;54122;53.538;49.366;2023-07-28T07:22:19;10.10;;;4.40;;
67195;SDS011;54122;53.538;49.366;2023-07-28T07:24:45;20.50;;;5.20;;
67195;SDS011;54122;53.538;49.366;2023-07-28T07:27:11;12.32;;;4.30;;
67195;SDS011;54122;53.538;49.366;2023-07-28T07:29:38;9.38;;;3.80;;
67195;SDS011;54122;53.538;49.366;2023-07-28T07:32:05;6.85;;;4.15;;
67195;SDS011;54122;53.538;49.366;2023-07-28T07:34:33;7.85;;;3.65;;
67195;SDS011;54122;53.538;49.366;2023-07-28T07:36:59;5.13;;;3.78;;
67195;SDS011;54122;53.538;49.366;2023-07-28T07:39:27;11.32;;;4.10;;
67195;SDS011;54122;53.538;49.366;2023-07-28T07:41:53;9.23;;;4.20;;
67195;SDS011;54122;53.538;49.366;2023-07-28T07:44:20;13.38;;;4.57;;
67195;SDS011;54122;53.538;49.366;2023-07-28T07:46:46;7.72;;;4.03;;
67195;SDS011;54122;53.538;49.366;2023-07-28T07:49:12;8.35;;;3.67;;
67195;SDS011;54122;53.538;49.366;2023-07-28T07:51:38;6.55;;;4.00;;
67195;SDS011;54122;53.538;49.366;2023-07-28T07:54:05;8.00;;;3.58;;
67195;SDS011;54122;53.538;49.366;2023-07-28T07:56:31;6.45;;;3.85;;
67195;SDS011;54122;53.538;49.366;2023-07-28T07:58:57;7.35;;;4.70;;
67195;SDS011;54122;53.538;49.366;2023-07-28T08:01:23;10.95;;;3.67;;
67195;SDS011;54122;53.538;49.366;2023-07-28T08:03:49;13.80;;;4.70;;
67195;SDS011;54122;53.538;49.366;2023-07-28T08:06:16;12.52;;;4.82;;
67195;SDS011;54122;53.538;49.366;2023-07-28T08:08:42;8.13;;;4.18;;
67195;SDS011;54122;53.538;49.366;2023-07-28T08:11:09;10.43;;;4.05;;
67195;SDS011;54122;53.538;49.366;2023-07-28T08:13:35;8.43;;;4.05;;
67195;SDS011;54122;53.538;49.366;2023-07-28T08:16:04;11.65;;;3.83;;
67195;SDS011;54122;53.538;49.366;2023-07-28T08:18:30;10.70;;;3.78;;
67195;SDS011;54122;53.538;49.366;2023-07-28T08:20:56;7.68;;;3.78;;
67195;SDS011;54122;53.538;49.366;2023-07-28T08:23:22;8.52;;;4.20;;
67195;SDS011;54122;53.538;49.366;2023-07-28T08:25:49;6.40;;;3.38;;
67195;SDS011;54122;53.538;49.366;2023-07-28T08:28:15;6.18;;;3.60;;
67195;SDS011;54122;53.538;49.366;2023-07-28T08:30:41;11.88;;;4.15;;
67195;SDS011;54122;53.538;49.366;2023-07-28T08:33:07;6.47;;;4.10;;
67195;SDS011;54122;53.538;49.366;2023-07-28T08:35:34;7.88;;;4.03;;
67195;SDS011;54122;53.538;49.366;2023-07-28T08:38:00;6.43;;;3.88;;
67195;SDS011;54122;53.538;49.366;2023-07-28T08:40:26;11.52;;;3.67;;
67195;SDS011;54122;53.538;49.366;2023-07-28T08:42:55;8.38;;;3.42;;
67195;SDS011;54122;53.538;49.366;2023-07-28T08:45:21;7.90;;;3.55;;
67195;SDS011;54122;53.538;49.366;2023-07-28T08:47:49;6.05;;;3.58;;
67195;SDS011;54122;53.538;49.366;2023-07-28T08:50:15;4.47;;;3.35;;
67195;SDS011;54122;53.538;49.366;2023-07-28T08:52:48;22.70;;;4.22;;
67195;SDS011;54122;53.538;49.366;2023-07-28T08:55:16;5.18;;;3.03;;
67195;SDS011;54122;53.538;49.366;2023-07-28T08:57:42;11.70;;;3.83;;
67195;SDS011;54122;53.538;49.366;2023-07-28T09:00:09;8.65;;;3.47;;
67195;SDS011;54122;53.538;49.366;2023-07-28T09:02:38;8.82;;;3.35;;
67195;SDS011;54122;53.538;49.366;2023-07-28T09:05:05;9.98;;;3.97;;
67195;SDS011;54122;53.538;49.366;2023-07-28T09:07:35;7.47;;;3.50;;
67195;SDS011;54122;53.538;49.366;2023-07-28T09:10:02;4.50;;;3.15;;
67195;SDS011;54122;53.538;49.366;2023-07-28T09:12:32;7.05;;;3.63;;
67195;SDS011;54122;53.538;49.366;2023-07-28T09:14:59;6.63;;;3.67;;
67195;SDS011;54122;53.538;49.366;2023-07-28T09:17:25;7.50;;;4.10;;
67195;SDS011;54122;53.538;49.366;2023-07-28T09:19:52;10.15;;;3.85;;
67195;SDS011;54122;53.538;49.366;2023-07-28T09:22:22;5.28;;;3.55;;
67195;SDS011;54122;53.538;49.366;2023-07-28T09:24:49;5.13;;;3.58;;
67195;SDS011;54122;53.538;49.366;2023-07-28T09:27:20;5.35;;;3.47;;
67195;SDS011;54122;53.538;49.366;2023-07-28T09:29:47;10.18;;;3.70;;
67195;SDS011;54122;53.538;49.366;2023-07-28T09:32:15;8.02;;;3.75;;
67195;SDS011;54122;53.538;49.366;2023-07-28T09:34:41;9.23;;;3.55;;
67195;SDS011;54122;53.538;49.366;2023-07-28T09:37:08;9.75;;;3.90;;
67195;SDS011;54122;53.538;49.366;2023-07-28T09:39:36;6.57;;;3.70;;
67195;SDS011;54122;53.538;49.366;2023-07-28T09:42:04;8.45;;;3.63;;
67195;SDS011;54122;53.538;49.366;2023-07-28T09:44:34;11.90;;;3.50;;
67195;SDS011;54122;53.538;49.366;2023-07-28T09:47:00;4.93;;;3.53;;
67195;SDS011;54122;53.538;49.366;2023-07-28T09:49:28;8.43;;;3.63;;
67195;SDS011;54122;53.538;49.366;2023-07-28T09:52:10;11.40;;;4.07;;
67195;SDS011;54122;53.538;49.366;2023-07-28T09:54:40;8.75;;;3.53;;
67195;SDS011;54122;53.538;49.366;2023-07-28T09:57:09;8.35;;;3.85;;
67195;SDS011;54122;53.538;49.366;2023-07-28T09:59:41;8.52;;;3.75;;
67195;SDS011;54122;53.538;49.366;2023-07-28T10:02:08;6.60;;;3.88;;
67195;SDS011;54122;53.538;49.366;2023-07-28T10:04:35;5.07;;;3.40;;
67195;SDS011;54122;53.538;49.366;2023-07-28T10:07:02;6.05;;;3.33;;
67195;SDS011;54122;53.538;49.366;2023-07-28T10:09:32;10.20;;;3.50;;
67195;SDS011;54122;53.538;49.366;2023-07-28T10:12:03;8.40;;;3.60;;
67195;SDS011;54122;53.538;49.366;2023-07-28T10:14:36;10.52;;;4.10;;
67195;SDS011;54122;53.538;49.366;2023-07-28T10:17:03;6.78;;;3.42;;
67195;SDS011;54122;53.538;49.366;2023-07-28T10:19:34;8.57;;;3.90;;
67195;SDS011;54122;53.538;49.366;2023-07-28T10:22:04;5.95;;;3.50;;
67195;SDS011;54122;53.538;49.366;2023-07-28T10:30:09;12.43;;;3.95;;
67195;SDS011;54122;53.538;49.366;2023-07-28T10:32:43;6.60;;;3.88;;
67195;SDS011;54122;53.538;49.366;2023-07-28T10:37:38;9.50;;;3.83;;
67195;SDS011;54122;53.538;49.366;2023-07-28T10:40:27;7.63;;;3.83;;
67195;SDS011;54122;53.538;49.366;2023-07-28T10:42:55;7.57;;;3.22;;
67195;SDS011;54122;53.538;49.366;2023-07-28T10:45:24;6.80;;;3.67;;
67195;SDS011;54122;53.538;49.366;2023-07-28T10:47:53;10.38;;;3.33;;
67195;SDS011;54122;53.538;49.366;2023-07-28T10:50:21;8.73;;;3.80;;
67195;SDS011;54122;53.538;49.366;2023-07-28T10:52:49;7.70;;;4.05;;
67195;SDS011;54122;53.538;49.366;2023-07-28T10:55:16;13.10;;;4.05;;
67195;SDS011;54122;53.538;49.366;2023-07-28T10:57:47;17.08;;;3.67;;
67195;SDS011;54122;53.538;49.366;2023-07-28T11:00:16;6.68;;;3.70;;
67195;SDS011;54122;53.538;49.366;2023-07-28T11:02:44;8.15;;;4.53;;
67195;SDS011;54122;53.538;49.366;2023-07-28T11:05:12;10.32;;;4.07;;
67195;SDS011;54122;53.538;49.366;2023-07-28T11:07:44;9.00;;;3.90;;
67195;SDS011;54122;53.538;49.366;2023-07-28T11:10:11;7.05;;;3.70;;
67195;SDS011;54122;53.538;49.366;2023-07-28T11:12:41;6.97;;;4.00;;
67195;SDS011;54122;53.538;49.366;2023-07-28T11:15:10;13.32;;;4.00;;
67195;SDS011;54122;53.538;49.366;2023-07-28T11:17:39;8.63;;;4.22;;
67195;SDS011;54122;53.538;49.366;2023-07-28T11:20:16;7.20;;;4.07;;
67195;SDS011;54122;53.538;49.366;2023-07-28T11:25:25;8.95;;;3.55;;
67195;SDS011;54122;53.538;49.366;2023-07-28T11:27:53;13.60;;;3.50;;
67195;SDS011;54122;53.538;49.366;2023-07-28T11:30:21;7.47;;;4.07;;
67195;SDS011;54122;53.538;49.366;2023-07-28T11:32:49;11.13;;;4.53;;
67195;SDS011;54122;53.538;49.366;2023-07-28T11:35:18;7.78;;;3.83;;
67195;SDS011;54122;53.538;49.366;2023-07-28T11:37:46;10.23;;;3.20;;
67195;SDS011;54122;53.538;49.366;2023-07-28T11:40:14;7.28;;;3.90;;
67195;SDS011;54122;53.538;49.366;2023-07-28T11:42:47;9.43;;;4.05;;
67195;SDS011;54122;53.538;49.366;2023-07-28T11:45:18;11.93;;;4.20;;
67195;SDS011;54122;53.538;49.366;2023-07-28T11:48:00;9.65;;;3.70;;
67195;SDS011;54122;53.538;49.366;2023-07-28T11:50:28;9.80;;;4.00;;
67195;SDS011;54122;53.538;49.366;2023-07-28T11:52:57;11.68;;;4.32;;
67195;SDS011;54122;53.538;49.366;2023-07-28T11:55:23;9.32;;;4.53;;
67195;SDS011;54122;53.538;49.366;2023-07-28T11:57:53;9.43;;;4.43;;
67195;SDS011;54122;53.538;49.366;2023-07-28T12:00:29;7.88;;;4.28;;
67195;SDS011;54122;53.538;49.366;2023-07-28T12:03:09;5.75;;;3.83;;
67195;SDS011;54122;53.538;49.366;2023-07-28T12:05:58;6.22;;;4.43;;
67195;SDS011;54122;53.538;49.366;2023-07-28T12:08:38;9.15;;;4.28;;
67195;SDS011;54122;53.538;49.366;2023-07-28T12:11:06;8.25;;;4.40;;
67195;SDS011;54122;53.538;49.366;2023-07-28T12:13:49;8.15;;;4.55;;
67195;SDS011;54122;53.538;49.366;2023-07-28T12:16:38;8.35;;;4.32;;
67195;SDS011;54122;53.538;49.366;2023-07-28T12:19:10;14.02;;;4.43;;
67195;SDS011;54122;53.538;49.366;2023-07-28T12:21:38;8.95;;;4.60;;
67195;SDS011;54122;53.538;49.366;2023-07-28T12:24:04;12.50;;;4.10;;
67195;SDS011;54122;53.538;49.366;2023-07-28T12:26:31;11.77;;;4.20;;
67195;SDS011;54122;53.538;49.366;2023-07-28T12:28:59;11.30;;;4.60;;
67195;SDS011;54122;53.538;49.366;2023-07-28T12:31:31;10.45;;;4.07;;
67195;SDS011;54122;53.538;49.366;2023-07-28T12:33:58;9.23;;;4.05;;
67195;SDS011;54122;53.538;49.366;2023-07-28T12:36:24;14.70;;;4.00;;
67195;SDS011;54122;53.538;49.366;2023-07-28T12:38:51;15.30;;;4.50;;
67195;SDS011;54122;53.538;49.366;2023-07-28T12:41:17;5.68;;;3.58;;
67195;SDS011;54122;53.538;49.366;2023-07-28T12:43:45;12.35;;;4.20;;
67195;SDS011;54122;53.538;49.366;2023-07-28T12:46:12;9.45;;;4.53;;
67195;SDS011;54122;53.538;49.366;2023-07-28T12:48:38;15.73;;;3.85;;
67195;SDS011;54122;53.538;49.366;2023-07-28T12:51:04;10.35;;;4.43;;
67195;SDS011;54122;53.538;49.366;2023-07-28T12:53:30;9.52;;;4.10;;
67195;SDS011;54122;53.538;49.366;2023-07-28T12:55:59;9.35;;;4.00;;
67195;SDS011;54122;53.538;49.366;2023-07-28T12:58:26;15.15;;;4.30;;
67195;SDS011;54122;53.538;49.366;2023-07-28T13:00:55;11.07;;;4.90;;
67195;SDS011;54122;53.538;49.366;2023-07-28T13:03:23;6.78;;;3.65;;
67195;SDS011;54122;53.538;49.366;2023-07-28T13:05:50;8.20;;;3.95;;
67195;SDS011;54122;53.538;49.366;2023-07-28T13:08:16;9.18;;;3.72;;
67195;SDS011;54122;53.538;49.366;2023-07-28T13:10:42;9.40;;;3.83;;
67195;SDS011;54122;53.538;49.366;2023-07-28T13:13:08;8.55;;;4.13;;
67195;SDS011;54122;53.538;49.366;2023-07-28T13:15:35;10.25;;;4.18;;
67195;SDS011;54122;53.538;49.366;2023-07-28T13:18:02;13.52;;;4.13;;
67195;SDS011;54122;53.538;49.366;2023-07-28T13:20:28;7.70;;;3.45;;
67195;SDS011;54122;53.538;49.366;2023-07-28T13:22:54;9.18;;;4.07;;
67195;SDS011;54122;53.538;49.366;2023-07-28T13:25:21;18.42;;;4.18;;
67195;SDS011;54122;53.538;49.366;2023-07-28T13:27:53;15.60;;;4.40;;
67195;SDS011;54122;53.538;49.366;2023-07-28T13:30:19;9.85;;;3.85;;
67195;SDS011;54122;53.538;49.366;2023-07-28T13:32:47;8.13;;;3.70;;
67195;SDS011;54122;53.538;49.366;2023-07-28T13:35:13;10.07;;;4.10;;
67195;SDS011;54122;53.538;49.366;2023-07-28T13:37:40;6.65;;;3.55;;
67195;SDS011;54122;53.538;49.366;2023-07-28T13:40:06;13.88;;;4.07;;
67195;SDS011;54122;53.538;49.366;2023-07-28T13:42:33;7.93;;;3.97;;
67195;SDS011;54122;53.538;49.366;2023-07-28T13:44:59;9.32;;;3.97;;
67195;SDS011;54122;53.538;49.366;2023-07-28T13:47:25;11.23;;;3.85;;
67195;SDS011;54122;53.538;49.366;2023-07-28T13:49:51;11.30;;;4.18;;
67195;SDS011;54122;53.538;49.366;2023-07-28T13:52:18;13.00;;;4.07;;
67195;SDS011;54122;53.538;49.366;2023-07-28T13:54:44;9.27;;;4.32;;
67195;SDS011;54122;53.538;49.366;2023-07-28T13:57:10;19.52;;;4.05;;
67195;SDS011;54122;53.538;49.366;2023-07-28T13:59:37;11.15;;;3.97;;
67195;SDS011;54122;53.538;49.366;2023-07-28T14:02:03;11.63;;;3.88;;
67195;SDS011;54122;53.538;49.366;2023-07-28T14:04:29;11.63;;;4.10;;
67195;SDS011;54122;53.538;49.366;2023-07-28T14:06:55;13.07;;;4.45;;
67195;SDS011;54122;53.538;49.366;2023-07-28T14:09:22;10.00;;;3.72;;
67195;SDS011;54122;53.538;49.366;2023-07-28T14:11:48;8.68;;;4.03;;
67195;SDS011;54122;53.538;49.366;2023-07-28T14:14:14;7.82;;;3.53;;
67195;SDS011;54122;53.538;49.366;2023-07-28T14:16:40;9.95;;;3.60;;
67195;SDS011;54122;53.538;49.366;2023-07-28T14:19:09;12.02;;;4.18;;
67195;SDS011;54122;53.538;49.366;2023-07-28T14:21:35;23.25;;;4.30;;
67195;SDS011;54122;53.538;49.366;2023-07-28T14:24:05;11.85;;;3.65;;
67195;SDS011;54122;53.538;49.366;2023-07-28T14:29:00;15.13;;;3.58;;
67195;SDS011;54122;53.538;49.366;2023-07-28T14:31:26;8.98;;;3.33;;
67195;SDS011;54122;53.538;49.366;2023-07-28T14:33:55;16.25;;;4.32;;
67195;SDS011;54122;53.538;49.366;2023-07-28T14:36:21;9.68;;;3.83;;
67195;SDS011;54122;53.538;49.366;2023-07-28T14:38:48;13.38;;;4.35;;
67195;SDS011;54122;53.538;49.366;2023-07-28T14:41:15;7.80;;;3.63;;
67195;SDS011;54122;53.538;49.366;2023-07-28T14:43:41;12.90;;;4.10;;
67195;SDS011;54122;53.538;49.366;2023-07-28T14:46:07;10.55;;;4.18;;
67195;SDS011;54122;53.538;49.366;2023-07-28T14:48:34;17.77;;;3.85;;
67195;SDS011;54122;53.538;49.366;2023-07-28T14:51:00;15.23;;;4.13;;